createdAt,value
2022-11-29T00:01:51.306Z,12.73
2022-11-29T00:03:54.654Z,12.65
2022-11-29T00:05:57.513Z,12.00
2022-11-29T00:07:59.696Z,13.15
2022-11-29T00:10:02.508Z,11.18
2022-11-29T09:23:12.126Z,9.67
2022-11-29T09:25:14.790Z,10.55
2022-11-29T09:27:17.010Z,11.43
2022-11-29T09:29:19.268Z,12.05
2022-11-29T09:31:22.042Z,12.30
2022-11-29T09:33:24.355Z,12.77
2022-11-29T09:35:26.622Z,13.40
2022-11-29T09:37:29.116Z,13.73
2022-11-29T09:39:31.740Z,12.05
2022-11-29T09:42:01.062Z,12.37
2022-11-29T09:44:08.863Z,11.57
2022-11-29T09:46:23.244Z,11.68
2022-11-29T09:48:42.141Z,12.25
2022-11-29T09:51:24.228Z,12.43
2022-11-29T09:53:29.295Z,11.27
2022-11-29T09:56:04.723Z,13.18
2022-11-29T09:58:13.998Z,12.07
2022-11-29T10:00:20.123Z,10.68
2022-11-29T10:02:33.135Z,11.70
2022-11-29T10:04:45.053Z,11.45
2022-11-29T10:06:58.295Z,13.70
2022-11-29T10:09:05.637Z,12.90
2022-11-29T10:11:35.221Z,12.73
2022-11-29T10:13:39.395Z,13.20
2022-11-29T10:15:45.759Z,11.05
2022-11-29T10:18:05.130Z,10.52
2022-11-29T10:20:26.079Z,14.98
2022-11-29T10:27:15.722Z,13.60
2022-11-29T10:29:18.387Z,14.52
2022-11-29T10:31:25.121Z,13.30
2022-11-29T10:33:32.929Z,14.95
2022-11-29T10:35:35.406Z,13.27
2022-11-29T10:37:38.534Z,13.80
2022-11-29T10:39:58.717Z,13.07
2022-11-29T10:42:03.647Z,13.43
2022-11-29T10:44:06.058Z,13.50
2022-11-29T10:46:15.768Z,15.65
2022-11-29T10:48:21.998Z,14.00
2022-11-29T10:50:30.850Z,12.32
2022-11-29T10:52:33.967Z,14.50
2022-11-29T10:54:44.547Z,15.43
2022-11-29T10:56:48.014Z,15.80
2022-11-29T10:59:03.088Z,14.93
2022-11-29T11:01:07.747Z,14.70
2022-11-29T11:03:31.108Z,14.77
2022-11-29T11:05:33.366Z,14.85
2022-11-29T11:07:36.505Z,13.77
2022-11-29T11:09:48.763Z,13.95
2022-11-29T11:11:53.990Z,13.13
2022-11-29T11:14:20.611Z,12.85
2022-11-29T11:16:24.848Z,13.43
2022-11-29T11:18:29.244Z,15.48
2022-11-29T11:20:33.941Z,14.57
2022-11-29T11:22:39.916Z,13.93
2022-11-29T11:24:44.780Z,14.25
2022-11-29T11:26:47.555Z,15.63
2022-11-29T11:28:58.378Z,16.48
2022-11-29T11:31:04.507Z,16.73
2022-11-29T11:33:07.012Z,15.95
2022-11-29T11:35:23.400Z,15.50
2022-11-29T11:37:29.667Z,14.93
2022-11-29T11:39:32.457Z,15.95
2022-11-29T11:42:01.032Z,15.60
2022-11-29T11:44:07.133Z,14.30
2022-11-29T11:46:18.306Z,15.13
2022-11-29T11:48:21.702Z,15.55
2022-11-29T11:50:27.700Z,15.65
2022-11-29T11:52:38.309Z,14.57
2022-11-29T11:54:48.091Z,14.50
2022-11-29T11:56:50.392Z,14.70
2022-11-29T11:58:56.903Z,15.50
2022-11-29T12:01:13.661Z,15.77
2022-11-29T12:03:51.099Z,15.18
2022-11-29T12:05:56.950Z,16.55
2022-11-29T12:08:09.809Z,15.73
2022-11-29T12:10:20.567Z,16.05
2022-11-29T12:12:43.366Z,15.38
2022-11-29T12:14:56.034Z,16.25
2022-11-29T12:17:20.408Z,14.98
2022-11-29T12:19:29.045Z,16.08
2022-11-29T12:21:40.556Z,14.45
2022-11-29T12:23:54.173Z,14.57
2022-11-29T12:25:56.378Z,15.57
2022-11-29T12:27:58.879Z,13.95
2022-11-29T12:30:01.492Z,15.05
2022-11-29T12:32:03.716Z,14.93
2022-11-29T12:34:43.009Z,15.98
2022-11-29T12:36:57.654Z,14.73
2022-11-29T12:39:13.205Z,14.75
2022-11-29T12:41:18.176Z,14.18
2022-11-29T12:43:54.579Z,15.32
2022-11-29T12:46:07.217Z,16.70
2022-11-29T12:48:33.306Z,15.70
2022-11-29T12:51:21.044Z,14.65
2022-11-29T12:53:50.465Z,15.63
2022-11-29T12:56:14.905Z,15.65
2022-11-29T12:58:26.193Z,16.48
2022-11-29T13:00:38.167Z,15.20
2022-11-29T13:02:45.606Z,15.02
2022-11-29T13:05:09.818Z,15.73
2022-11-29T13:07:24.192Z,20.12
2022-11-29T13:09:51.855Z,17.05
2022-11-29T13:12:05.837Z,16.92
2022-11-29T13:14:42.215Z,17.15
2022-11-29T13:16:56.313Z,15.35
2022-11-29T13:19:18.615Z,16.27
2022-11-29T13:21:49.184Z,13.82
2022-11-29T13:24:14.069Z,16.20
2022-11-29T13:26:17.454Z,16.00
2022-11-29T13:28:29.255Z,16.77
2022-11-29T13:30:34.483Z,16.45
2022-11-29T13:32:44.426Z,17.05
2022-11-29T13:34:50.077Z,15.90
2022-11-29T13:37:01.543Z,15.27
2022-11-29T13:39:14.009Z,15.70
2022-11-29T13:41:31.336Z,16.48
2022-11-29T13:43:55.411Z,16.73
2022-11-29T13:46:16.090Z,15.57
2022-11-29T13:48:37.673Z,21.62
2022-11-29T13:50:43.729Z,16.25
2022-11-29T13:52:48.957Z,16.60
2022-11-29T13:55:15.527Z,17.20
2022-11-29T13:57:18.118Z,18.65
2022-11-29T13:59:28.111Z,17.52
2022-11-29T14:01:43.824Z,15.73
2022-11-29T14:04:04.050Z,15.20
2022-11-29T14:06:21.231Z,17.42
2022-11-29T14:08:48.017Z,15.93
2022-11-29T14:10:58.386Z,14.80
2022-11-29T14:13:01.974Z,16.42
2022-11-29T14:15:14.786Z,13.75
2022-11-29T14:17:48.005Z,16.67
2022-11-29T14:19:50.240Z,15.50
2022-11-29T14:22:07.366Z,18.35
2022-11-29T14:24:33.289Z,16.42
2022-11-29T14:26:35.575Z,16.58
2022-11-29T14:28:39.655Z,16.70
2022-11-29T14:30:47.471Z,16.15
2022-11-29T14:32:56.461Z,16.45
2022-11-29T14:35:10.877Z,16.33
2022-11-29T14:37:51.912Z,16.67
2022-11-29T14:39:57.653Z,16.25
2022-11-29T14:42:14.420Z,15.75
2022-11-29T14:44:22.778Z,17.40
2022-11-29T14:46:30.632Z,15.77
2022-11-29T14:48:33.858Z,16.95
2022-11-29T14:50:40.545Z,16.35
2022-11-29T14:52:52.535Z,17.70
2022-11-29T14:54:59.617Z,17.10
2022-11-29T14:57:56.833Z,17.55
2022-11-29T15:00:01.419Z,17.10
2022-11-29T15:02:17.771Z,18.05
2022-11-29T15:04:24.632Z,16.00
2022-11-29T15:06:28.252Z,18.15
2022-11-29T15:08:57.478Z,18.20
2022-11-29T15:11:04.777Z,17.55
2022-11-29T15:13:11.852Z,21.30
2022-11-29T15:15:37.547Z,17.52
2022-11-29T15:17:53.317Z,16.92
2022-11-29T15:20:04.626Z,17.83
2022-11-29T15:22:21.198Z,21.90
2022-11-29T15:24:28.327Z,19.60
2022-11-29T15:26:32.191Z,16.95
2022-11-29T15:28:35.037Z,19.05
2022-11-29T15:30:41.970Z,18.23
2022-11-29T15:32:44.378Z,16.95
2022-11-29T15:34:50.541Z,18.75
2022-11-29T15:36:52.803Z,17.15
2022-11-29T15:38:57.558Z,19.20
2022-11-29T15:41:00.125Z,16.55
2022-11-29T15:43:17.862Z,17.08
2022-11-29T15:45:33.967Z,18.62
2022-11-29T15:47:36.567Z,18.27
2022-11-29T15:49:38.830Z,18.25
2022-11-29T15:51:41.740Z,18.60
2022-11-29T15:54:00.422Z,18.85
2022-11-29T15:56:20.266Z,19.33
2022-11-29T15:58:23.736Z,17.45
2022-11-29T16:00:28.216Z,17.92
2022-11-29T16:02:37.164Z,17.67
2022-11-29T16:04:46.567Z,18.12
2022-11-29T16:06:50.191Z,16.98
2022-11-29T16:08:54.348Z,18.17
2022-11-29T16:10:57.834Z,18.50
2022-11-29T16:13:29.298Z,17.75
2022-11-29T16:15:35.234Z,18.12
2022-11-29T16:17:37.744Z,17.67
2022-11-29T16:19:41.602Z,18.48
2022-11-29T16:21:44.777Z,18.23
2022-11-29T16:23:47.542Z,18.75
2022-11-29T16:26:00.876Z,18.20
2022-11-29T16:28:03.621Z,17.70
2022-11-29T16:30:06.850Z,20.33
2022-11-29T16:32:20.825Z,18.40
2022-11-29T16:34:31.034Z,18.40
2022-11-29T16:36:33.526Z,18.40
2022-11-29T16:38:35.842Z,18.60
2022-11-29T16:40:38.725Z,19.33
2022-11-29T16:42:41.595Z,18.02
2022-11-29T16:44:47.521Z,18.42
2022-11-29T16:47:10.477Z,20.27
2022-11-29T16:49:36.072Z,18.42
2022-11-29T16:51:49.273Z,17.17
2022-11-29T16:53:53.753Z,17.08
2022-11-29T16:55:56.220Z,25.12
2022-11-29T16:57:59.037Z,19.98
2022-11-29T17:00:01.997Z,19.15
2022-11-29T17:02:10.657Z,19.70
2022-11-29T17:04:13.100Z,19.25
2022-11-29T17:06:28.428Z,20.52
2022-11-29T17:08:33.803Z,19.73
2022-11-29T17:10:36.455Z,21.70
2022-11-29T17:12:46.344Z,20.10
2022-11-29T17:14:50.842Z,18.92
2022-11-29T17:16:54.460Z,19.87
2022-11-29T17:18:57.141Z,18.15
2022-11-29T17:20:59.460Z,18.75
2022-11-29T17:23:01.778Z,22.45
2022-11-29T17:25:04.812Z,21.85
2022-11-29T17:27:08.653Z,19.60
2022-11-29T17:29:12.512Z,19.62
2022-11-29T17:31:18.075Z,19.55
2022-11-29T17:33:24.741Z,19.83
2022-11-29T17:35:27.250Z,19.42
2022-11-29T17:37:30.576Z,20.27
2022-11-29T17:39:33.634Z,19.73
2022-11-29T17:41:36.054Z,20.33
2022-11-29T17:43:38.859Z,19.73
2022-11-29T17:45:41.532Z,18.65
2022-11-29T17:47:43.881Z,18.20
2022-11-29T17:49:46.970Z,17.75
2022-11-29T17:51:52.593Z,21.27
2022-11-29T17:53:55.765Z,18.27
2022-11-29T17:56:08.398Z,18.27
2022-11-29T17:58:11.082Z,17.77
2022-11-29T18:00:15.701Z,20.20
2022-11-29T18:02:18.343Z,20.10
2022-11-29T18:04:20.932Z,21.55
2022-11-29T18:06:26.108Z,20.30
2022-11-29T18:08:29.015Z,19.00
2022-11-29T18:10:32.010Z,20.30
2022-11-29T18:12:34.815Z,18.87
2022-11-29T18:14:39.247Z,19.52
2022-11-29T18:16:42.254Z,19.40
2022-11-29T18:18:45.836Z,17.35
2022-11-29T18:20:53.453Z,22.77
2022-11-29T18:22:56.683Z,18.05
2022-11-29T18:25:30.171Z,20.17
2022-11-29T18:27:22.246Z,22.13
2022-11-29T18:29:24.859Z,22.45
2022-11-29T18:31:30.448Z,23.65
2022-11-29T18:33:32.983Z,21.87
2022-11-29T18:35:36.119Z,49.92
2022-11-29T18:38:12.832Z,21.87
2022-11-29T18:40:01.924Z,22.15
2022-11-29T18:42:04.355Z,23.10
2022-11-29T18:44:10.732Z,23.30
2022-11-29T18:46:16.286Z,32.85
2022-11-29T18:48:19.172Z,44.50
2022-11-29T18:50:22.085Z,22.58
2022-11-29T18:52:25.055Z,22.80
2022-11-29T18:54:29.579Z,22.73
2022-11-29T18:56:34.736Z,21.92
2022-11-29T18:58:38.455Z,19.40
2022-11-29T19:00:41.267Z,21.37
2022-11-29T19:02:44.037Z,21.08
2022-11-29T19:04:50.676Z,20.40
2022-11-29T19:06:53.456Z,21.55
2022-11-29T19:08:58.883Z,22.30
2022-11-29T19:11:10.154Z,21.65
2022-11-29T19:13:12.434Z,20.92
2022-11-29T19:15:15.649Z,20.45
2022-11-29T19:17:19.501Z,22.85
2022-11-29T19:19:23.560Z,19.98
2022-11-29T19:21:29.036Z,19.48
2022-11-29T19:23:32.141Z,21.40
2022-11-29T19:25:35.010Z,20.45
2022-11-29T19:27:41.220Z,22.48
2022-11-29T19:29:45.229Z,22.90
2022-11-29T19:31:50.741Z,21.12
2022-11-29T19:33:55.019Z,20.15
2022-11-29T19:36:04.438Z,21.25
2022-11-29T19:38:07.198Z,19.80
2022-11-29T19:40:10.070Z,21.05
2022-11-29T19:42:13.089Z,21.98
2022-11-29T19:44:15.842Z,19.50
2022-11-29T19:46:25.021Z,19.67
2022-11-29T19:48:28.220Z,21.85
2022-11-29T19:50:30.987Z,20.95
2022-11-29T19:52:33.360Z,24.30
2022-11-29T19:54:36.365Z,24.40
2022-11-29T19:56:40.360Z,26.25
2022-11-29T19:58:44.029Z,20.98
2022-11-29T20:00:47.795Z,19.40
2022-11-29T20:02:50.400Z,20.65
2022-11-29T20:04:53.590Z,19.55
2022-11-29T20:06:56.510Z,19.52
2022-11-29T20:08:59.760Z,19.20
2022-11-29T20:11:18.808Z,18.98
2022-11-29T20:13:25.896Z,20.17
2022-11-29T20:15:28.604Z,19.58
2022-11-29T20:17:31.399Z,20.33
2022-11-29T20:19:34.248Z,19.98
2022-11-29T20:21:46.052Z,18.62
2022-11-29T20:23:49.485Z,18.70
2022-11-29T20:25:52.246Z,20.60
2022-11-29T20:27:58.479Z,18.50
2022-11-29T20:30:01.298Z,19.83
2022-11-29T20:32:03.681Z,20.45
2022-11-29T20:34:07.227Z,18.85
2022-11-29T20:36:34.240Z,19.95
2022-11-29T20:38:55.367Z,19.67
2022-11-29T20:41:16.412Z,18.25
2022-11-29T20:43:36.655Z,18.08
2022-11-29T20:45:39.952Z,18.73
2022-11-29T20:47:51.970Z,19.25
2022-11-29T20:49:55.217Z,18.77
2022-11-29T20:52:07.231Z,18.83
2022-11-29T20:54:12.402Z,18.55
2022-11-29T20:56:14.712Z,17.17
2022-11-29T20:58:18.733Z,19.02
2022-11-29T21:00:22.187Z,18.02
2022-11-29T21:02:25.178Z,17.92
2022-11-29T21:04:28.016Z,18.75
2022-11-29T21:06:34.628Z,17.67
2022-11-29T21:08:38.045Z,17.67
2022-11-29T21:10:40.871Z,19.55
2022-11-29T21:12:45.822Z,18.00
2022-11-29T21:14:48.944Z,19.20
2022-11-29T21:16:51.872Z,19.15
2022-11-29T21:18:58.557Z,18.85
2022-11-29T21:21:16.233Z,20.35
2022-11-29T21:23:30.479Z,20.83
2022-11-29T21:25:53.154Z,17.50
2022-11-29T21:27:57.085Z,18.60
2022-11-29T21:30:00.363Z,19.65
2022-11-29T21:32:03.495Z,18.60
2022-11-29T21:34:05.929Z,19.80
2022-11-29T21:36:09.655Z,21.05
2022-11-29T21:38:17.355Z,20.60
2022-11-29T21:40:19.976Z,18.87
2022-11-29T21:42:22.316Z,19.12
2022-11-29T21:44:24.991Z,18.75
2022-11-29T21:46:27.321Z,18.45
2022-11-29T21:48:35.349Z,18.67
2022-11-29T21:50:38.188Z,20.80
2022-11-29T21:52:40.835Z,19.02
2022-11-29T21:54:43.029Z,18.52
2022-11-29T21:56:45.528Z,18.90
2022-11-29T21:58:47.777Z,18.40
2022-11-29T22:00:50.004Z,18.27
2022-11-29T22:02:52.776Z,18.85
2022-11-29T22:04:55.057Z,18.25
2022-11-29T22:06:57.280Z,18.00
2022-11-29T22:09:00.248Z,17.77
2022-11-29T22:11:04.649Z,18.33
2022-11-29T22:13:06.849Z,18.60
2022-11-29T22:15:12.439Z,18.10
2022-11-29T22:17:14.639Z,17.35
2022-11-29T22:19:19.342Z,17.90
2022-11-29T22:21:21.888Z,19.42
2022-11-29T22:23:24.109Z,18.25
2022-11-29T22:25:26.357Z,18.50
2022-11-29T22:27:28.873Z,17.83
2022-11-29T22:29:31.171Z,18.58
2022-11-29T22:31:35.330Z,17.00
2022-11-29T22:33:38.869Z,18.65
2022-11-29T22:35:44.908Z,18.58
2022-11-29T22:37:47.181Z,18.30
2022-11-29T22:39:49.651Z,17.75
2022-11-29T22:41:54.561Z,18.25
2022-11-29T22:43:57.506Z,17.15
2022-11-29T22:46:16.477Z,19.37
2022-11-29T22:48:19.067Z,19.17
2022-11-29T22:50:21.284Z,17.87
2022-11-29T22:52:23.975Z,17.55
2022-11-29T22:54:26.175Z,17.80
2022-11-29T22:56:30.920Z,17.75
2022-11-29T22:58:34.024Z,18.45
2022-11-29T23:00:42.258Z,17.33
2022-11-29T23:02:44.515Z,17.85
2022-11-29T23:04:47.265Z,18.20
2022-11-29T23:06:49.645Z,18.25
2022-11-29T23:08:53.735Z,17.42
2022-11-29T23:10:57.597Z,18.60
2022-11-29T23:12:59.857Z,18.15
2022-11-29T23:15:02.802Z,17.15
2022-11-29T23:17:05.286Z,19.05
2022-11-29T23:19:07.546Z,19.17
2022-11-29T23:21:16.405Z,18.23
2022-11-29T23:23:18.860Z,19.87
2022-11-29T23:25:21.066Z,18.40
2022-11-29T23:27:23.896Z,18.30
2022-11-29T23:29:26.350Z,18.37
